sensor_id;sensor_type;location;lat;lon;timestamp;temperature;humidity
12315;DHT22;23886;46.614;14.276;2022-12-18T00:01:34;-2.80;99.90
12315;DHT22;23886;46.614;14.276;2022-12-18T00:04:03;-2.90;99.90
12315;DHT22;23886;46.614;14.276;2022-12-18T00:06:34;-2.90;99.90
12315;DHT22;23886;46.614;14.276;2022-12-18T00:09:03;-2.70;99.90
12315;DHT22;23886;46.614;14.276;2022-12-18T00:11:31;-2.70;99.90
12315;DHT22;23886;46.614;14.276;2022-12-18T00:13:59;-2.70;99.90
12315;DHT22;23886;46.614;14.276;2022-12-18T00:16:28;-2.80;99.90
12315;DHT22;23886;46.614;14.276;2022-12-18T00:18:59;-2.90;99.90
12315;DHT22;23886;46.614;14.276;2022-12-18T00:21:30;-2.90;99.90
12315;DHT22;23886;46.614;14.276;2022-12-18T00:23:57;-3.00;99.90
12315;DHT22;23886;46.614;14.276;2022-12-18T00:26:27;-3.00;99.90
12315;DHT22;23886;46.614;14.276;2022-12-18T00:28:57;-3.00;99.90
12315;DHT22;23886;46.614;14.276;2022-12-18T00:31:27;-3.10;99.90
12315;DHT22;23886;46.614;14.276;2022-12-18T00:33:54;-2.90;99.90
12315;DHT22;23886;46.614;14.276;2022-12-18T00:36:24;-2.90;99.90
12315;DHT22;23886;46.614;14.276;2022-12-18T00:38:51;-2.90;99.90
12315;DHT22;23886;46.614;14.276;2022-12-18T00:41:19;-3.00;99.90
12315;DHT22;23886;46.614;14.276;2022-12-18T00:44:00;-3.00;99.90
12315;DHT22;23886;46.614;14.276;2022-12-18T00:46:28;-3.00;99.90
12315;DHT22;23886;46.614;14.276;2022-12-18T00:48:55;-3.20;99.90
12315;DHT22;23886;46.614;14.276;2022-12-18T00:51:22;-3.20;99.90
12315;DHT22;23886;46.614;14.276;2022-12-18T00:53:49;-3.40;99.90
12315;DHT22;23886;46.614;14.276;2022-12-18T00:56:16;-3.40;99.90
12315;DHT22;23886;46.614;14.276;2022-12-18T00:58:51;-3.30;99.90
12315;DHT22;23886;46.614;14.276;2022-12-18T01:01:18;-3.30;99.90
12315;DHT22;23886;46.614;14.276;2022-12-18T01:03:46;-3.40;99.90
12315;DHT22;23886;46.614;14.276;2022-12-18T01:06:14;-3.30;99.90
12315;DHT22;23886;46.614;14.276;2022-12-18T01:08:41;-3.20;99.90
12315;DHT22;23886;46.614;14.276;2022-12-18T01:11:09;-3.00;99.90
12315;DHT22;23886;46.614;14.276;2022-12-18T01:13:37;-2.90;99.90
12315;DHT22;23886;46.614;14.276;2022-12-18T01:16:05;-2.90;99.90
12315;DHT22;23886;46.614;14.276;2022-12-18T01:18:32;-2.90;99.90
12315;DHT22;23886;46.614;14.276;2022-12-18T01:21:00;-2.90;99.90
12315;DHT22;23886;46.614;14.276;2022-12-18T01:23:31;-2.90;99.90
12315;DHT22;23886;46.614;14.276;2022-12-18T01:26:04;-3.00;99.90
12315;DHT22;23886;46.614;14.276;2022-12-18T01:28:31;-3.00;99.90
12315;DHT22;23886;46.614;14.276;2022-12-18T01:31:09;-2.90;99.90
12315;DHT22;23886;46.614;14.276;2022-12-18T01:33:37;-2.80;99.90
12315;DHT22;23886;46.614;14.276;2022-12-18T01:36:06;-2.60;99.90
12315;DHT22;23886;46.614;14.276;2022-12-18T01:38:33;-2.50;99.90
12315;DHT22;23886;46.614;14.276;2022-12-18T01:41:00;-2.50;99.90
12315;DHT22;23886;46.614;14.276;2022-12-18T01:43:48;-2.60;99.90
12315;DHT22;23886;46.614;14.276;2022-12-18T01:46:17;-2.60;99.90
12315;DHT22;23886;46.614;14.276;2022-12-18T01:48:45;-2.60;99.90
12315;DHT22;23886;46.614;14.276;2022-12-18T01:51:14;-2.40;99.90
12315;DHT22;23886;46.614;14.276;2022-12-18T01:53:43;-2.30;99.90
12315;DHT22;23886;46.614;14.276;2022-12-18T01:56:14;-2.20;99.90
12315;DHT22;23886;46.614;14.276;2022-12-18T01:58:49;-2.20;99.90
12315;DHT22;23886;46.614;14.276;2022-12-18T02:01:18;-2.30;99.90
12315;DHT22;23886;46.614;14.276;2022-12-18T02:03:45;-2.40;99.90
12315;DHT22;23886;46.614;14.276;2022-12-18T02:06:16;-2.20;99.90
12315;DHT22;23886;46.614;14.276;2022-12-18T02:08:53;-2.00;99.90
12315;DHT22;23886;46.614;14.276;2022-12-18T02:11:33;-2.00;99.90
12315;DHT22;23886;46.614;14.276;2022-12-18T02:14:12;-1.90;99.90
12315;DHT22;23886;46.614;14.276;2022-12-18T02:16:44;-2.00;99.90
12315;DHT22;23886;46.614;14.276;2022-12-18T02:19:27;-2.10;99.90
12315;DHT22;23886;46.614;14.276;2022-12-18T02:22:11;-1.80;99.90
12315;DHT22;23886;46.614;14.276;2022-12-18T02:24:51;-1.80;99.90
12315;DHT22;23886;46.614;14.276;2022-12-18T02:27:22;-1.80;99.90
12315;DHT22;23886;46.614;14.276;2022-12-18T02:29:51;-1.90;99.90
12315;DHT22;23886;46.614;14.276;2022-12-18T02:32:24;-2.00;99.90
12315;DHT22;23886;46.614;14.276;2022-12-18T02:34:53;-2.10;99.90
12315;DHT22;23886;46.614;14.276;2022-12-18T02:37:23;-2.00;99.90
12315;DHT22;23886;46.614;14.276;2022-12-18T02:39:53;-2.00;99.90
12315;DHT22;23886;46.614;14.276;2022-12-18T02:42:23;-2.00;99.90
12315;DHT22;23886;46.614;14.276;2022-12-18T02:44:52;-2.10;99.90
12315;DHT22;23886;46.614;14.276;2022-12-18T02:47:23;-2.00;99.90
12315;DHT22;23886;46.614;14.276;2022-12-18T02:50:00;-1.90;99.90
12315;DHT22;23886;46.614;14.276;2022-12-18T02:52:32;-2.00;99.90
12315;DHT22;23886;46.614;14.276;2022-12-18T02:55:13;-1.90;99.90
12315;DHT22;23886;46.614;14.276;2022-12-18T02:57:47;-1.80;99.90
12315;DHT22;23886;46.614;14.276;2022-12-18T03:00:19;-1.80;99.90
12315;DHT22;23886;46.614;14.276;2022-12-18T03:02:48;-1.80;99.90
12315;DHT22;23886;46.614;14.276;2022-12-18T03:05:22;-1.90;99.90
12315;DHT22;23886;46.614;14.276;2022-12-18T03:07:53;-1.80;99.90
12315;DHT22;23886;46.614;14.276;2022-12-18T03:10:27;-1.70;99.90
12315;DHT22;23886;46.614;14.276;2022-12-18T03:13:00;-1.70;99.90
12315;DHT22;23886;46.614;14.276;2022-12-18T03:15:30;-1.60;99.90
12315;DHT22;23886;46.614;14.276;2022-12-18T03:18:02;-1.60;99.90
12315;DHT22;23886;46.614;14.276;2022-12-18T03:20:33;-1.60;99.90
12315;DHT22;23886;46.614;14.276;2022-12-18T03:23:06;-1.70;99.90
12315;DHT22;23886;46.614;14.276;2022-12-18T03:25:35;-1.70;99.90
12315;DHT22;23886;46.614;14.276;2022-12-18T03:28:07;-1.60;99.90
12315;DHT22;23886;46.614;14.276;2022-12-18T03:30:39;-1.70;99.90
12315;DHT22;23886;46.614;14.276;2022-12-18T03:33:10;-1.50;99.90
12315;DHT22;23886;46.614;14.276;2022-12-18T03:35:41;-1.40;99.90
12315;DHT22;23886;46.614;14.276;2022-12-18T03:38:10;-1.50;99.90
12315;DHT22;23886;46.614;14.276;2022-12-18T03:40:43;-1.50;99.90
12315;DHT22;23886;46.614;14.276;2022-12-18T03:43:17;-1.50;99.90
12315;DHT22;23886;46.614;14.276;2022-12-18T03:45:50;-1.60;99.90
12315;DHT22;23886;46.614;14.276;2022-12-18T03:48:23;-1.60;99.90
12315;DHT22;23886;46.614;14.276;2022-12-18T03:50:56;-1.60;99.90
12315;DHT22;23886;46.614;14.276;2022-12-18T03:53:31;-1.60;99.90
12315;DHT22;23886;46.614;14.276;2022-12-18T03:56:00;-1.60;99.90
12315;DHT22;23886;46.614;14.276;2022-12-18T03:58:31;-1.60;99.90
12315;DHT22;23886;46.614;14.276;2022-12-18T04:01:02;-1.50;99.90
12315;DHT22;23886;46.614;14.276;2022-12-18T04:03:36;-1.40;99.90
12315;DHT22;23886;46.614;14.276;2022-12-18T04:06:04;-1.30;99.90
12315;DHT22;23886;46.614;14.276;2022-12-18T04:08:32;-1.30;99.90
12315;DHT22;23886;46.614;14.276;2022-12-18T04:11:01;-1.40;99.90
12315;DHT22;23886;46.614;14.276;2022-12-18T04:13:32;-1.40;99.90
12315;DHT22;23886;46.614;14.276;2022-12-18T04:15:59;-1.40;99.90
12315;DHT22;23886;46.614;14.276;2022-12-18T04:18:26;-1.30;99.90
12315;DHT22;23886;46.614;14.276;2022-12-18T04:20:53;-1.40;99.90
12315;DHT22;23886;46.614;14.276;2022-12-18T04:23:20;-1.30;99.90
12315;DHT22;23886;46.614;14.276;2022-12-18T04:25:47;-1.30;99.90
12315;DHT22;23886;46.614;14.276;2022-12-18T04:28:14;-1.30;99.90
12315;DHT22;23886;46.614;14.276;2022-12-18T04:30:43;-1.30;99.90
12315;DHT22;23886;46.614;14.276;2022-12-18T04:33:10;-1.30;99.90
12315;DHT22;23886;46.614;14.276;2022-12-18T04:35:39;-1.20;99.90
12315;DHT22;23886;46.614;14.276;2022-12-18T04:38:06;-1.10;99.90
12315;DHT22;23886;46.614;14.276;2022-12-18T04:40:34;-1.10;99.90
12315;DHT22;23886;46.614;14.276;2022-12-18T04:43:01;-1.20;99.90
12315;DHT22;23886;46.614;14.276;2022-12-18T04:45:29;-1.30;99.90
12315;DHT22;23886;46.614;14.276;2022-12-18T04:47:58;-1.20;99.90
12315;DHT22;23886;46.614;14.276;2022-12-18T04:50:25;-1.20;99.90
12315;DHT22;23886;46.614;14.276;2022-12-18T04:52:53;-1.10;99.90
12315;DHT22;23886;46.614;14.276;2022-12-18T04:55:20;-1.20;99.90
12315;DHT22;23886;46.614;14.276;2022-12-18T04:57:50;-1.20;99.90
12315;DHT22;23886;46.614;14.276;2022-12-18T05:00:17;-1.20;99.90
12315;DHT22;23886;46.614;14.276;2022-12-18T05:02:44;-1.20;99.90
12315;DHT22;23886;46.614;14.276;2022-12-18T05:05:12;-1.30;99.90
12315;DHT22;23886;46.614;14.276;2022-12-18T05:07:39;-1.30;99.90
12315;DHT22;23886;46.614;14.276;2022-12-18T05:10:07;-1.30;99.90
12315;DHT22;23886;46.614;14.276;2022-12-18T05:12:34;-1.30;99.90
12315;DHT22;23886;46.614;14.276;2022-12-18T05:15:21;-1.20;99.90
12315;DHT22;23886;46.614;14.276;2022-12-18T05:17:48;-1.30;99.90
12315;DHT22;23886;46.614;14.276;2022-12-18T05:20:17;-1.40;99.90
12315;DHT22;23886;46.614;14.276;2022-12-18T05:22:44;-1.30;99.90
12315;DHT22;23886;46.614;14.276;2022-12-18T05:25:11;-1.20;99.90
12315;DHT22;23886;46.614;14.276;2022-12-18T05:27:38;-1.20;99.90
12315;DHT22;23886;46.614;14.276;2022-12-18T05:30:06;-1.20;99.90
12315;DHT22;23886;46.614;14.276;2022-12-18T05:32:33;-1.10;99.90
12315;DHT22;23886;46.614;14.276;2022-12-18T05:35:00;-1.20;99.90
12315;DHT22;23886;46.614;14.276;2022-12-18T05:37:29;-1.20;99.90
12315;DHT22;23886;46.614;14.276;2022-12-18T05:39:56;-1.20;99.90
12315;DHT22;23886;46.614;14.276;2022-12-18T05:42:23;-1.20;99.90
12315;DHT22;23886;46.614;14.276;2022-12-18T05:44:50;-1.30;99.90
12315;DHT22;23886;46.614;14.276;2022-12-18T05:47:17;-1.30;99.90
12315;DHT22;23886;46.614;14.276;2022-12-18T05:49:44;-1.20;99.90
12315;DHT22;23886;46.614;14.276;2022-12-18T05:52:11;-1.20;99.90
12315;DHT22;23886;46.614;14.276;2022-12-18T05:54:39;-1.20;99.90
12315;DHT22;23886;46.614;14.276;2022-12-18T05:57:06;-1.30;99.90
12315;DHT22;23886;46.614;14.276;2022-12-18T05:59:33;-1.30;99.90
12315;DHT22;23886;46.614;14.276;2022-12-18T06:02:00;-1.20;99.90
12315;DHT22;23886;46.614;14.276;2022-12-18T06:04:27;-1.10;99.90
12315;DHT22;23886;46.614;14.276;2022-12-18T06:06:57;-1.20;99.90
12315;DHT22;23886;46.614;14.276;2022-12-18T06:09:24;-1.20;99.90
12315;DHT22;23886;46.614;14.276;2022-12-18T06:11:52;-1.30;99.90
12315;DHT22;23886;46.614;14.276;2022-12-18T06:14:19;-1.30;99.90
12315;DHT22;23886;46.614;14.276;2022-12-18T06:16:46;-1.30;99.90
12315;DHT22;23886;46.614;14.276;2022-12-18T06:19:15;-1.30;99.90
12315;DHT22;23886;46.614;14.276;2022-12-18T06:21:42;-1.20;99.90
12315;DHT22;23886;46.614;14.276;2022-12-18T06:24:09;-1.20;99.90
12315;DHT22;23886;46.614;14.276;2022-12-18T06:26:37;-1.10;99.90
12315;DHT22;23886;46.614;14.276;2022-12-18T06:29:06;-1.20;99.90
12315;DHT22;23886;46.614;14.276;2022-12-18T06:31:33;-1.20;99.90
12315;DHT22;23886;46.614;14.276;2022-12-18T06:34:02;-1.10;99.90
12315;DHT22;23886;46.614;14.276;2022-12-18T06:36:30;-1.10;99.90
12315;DHT22;23886;46.614;14.276;2022-12-18T06:38:57;-1.00;99.90
12315;DHT22;23886;46.614;14.276;2022-12-18T06:41:24;-1.10;99.90
12315;DHT22;23886;46.614;14.276;2022-12-18T06:43:51;-1.10;99.90
12315;DHT22;23886;46.614;14.276;2022-12-18T06:46:20;-1.10;99.90
12315;DHT22;23886;46.614;14.276;2022-12-18T06:48:48;-1.10;99.90
12315;DHT22;23886;46.614;14.276;2022-12-18T06:51:17;-1.00;99.90
12315;DHT22;23886;46.614;14.276;2022-12-18T06:53:44;-1.10;99.90
12315;DHT22;23886;46.614;14.276;2022-12-18T06:56:11;-1.10;99.90
12315;DHT22;23886;46.614;14.276;2022-12-18T06:58:38;-1.20;99.90
12315;DHT22;23886;46.614;14.276;2022-12-18T07:01:07;-1.20;99.90
12315;DHT22;23886;46.614;14.276;2022-12-18T07:03:36;-1.30;99.90
12315;DHT22;23886;46.614;14.276;2022-12-18T07:06:03;-1.20;99.90
12315;DHT22;23886;46.614;14.276;2022-12-18T07:08:30;-1.10;99.90
12315;DHT22;23886;46.614;14.276;2022-12-18T07:10:57;-1.00;99.90
12315;DHT22;23886;46.614;14.276;2022-12-18T07:13:24;-1.00;99.90
12315;DHT22;23886;46.614;14.276;2022-12-18T07:15:52;-1.10;99.90
12315;DHT22;23886;46.614;14.276;2022-12-18T07:18:19;-1.10;99.90
12315;DHT22;23886;46.614;14.276;2022-12-18T07:20:47;-1.10;99.90
12315;DHT22;23886;46.614;14.276;2022-12-18T07:23:14;-1.10;99.90
12315;DHT22;23886;46.614;14.276;2022-12-18T07:25:41;-1.10;99.90
12315;DHT22;23886;46.614;14.276;2022-12-18T07:28:08;-1.00;99.90
12315;DHT22;23886;46.614;14.276;2022-12-18T07:30:37;-1.00;99.90
12315;DHT22;23886;46.614;14.276;2022-12-18T07:33:04;-1.00;99.90
12315;DHT22;23886;46.614;14.276;2022-12-18T07:35:32;-1.00;99.90
12315;DHT22;23886;46.614;14.276;2022-12-18T07:38:03;-1.00;99.90
12315;DHT22;23886;46.614;14.276;2022-12-18T07:40:30;-0.90;99.90
12315;DHT22;23886;46.614;14.276;2022-12-18T07:42:57;-0.90;99.90
12315;DHT22;23886;46.614;14.276;2022-12-18T07:45:24;-0.80;99.90
12315;DHT22;23886;46.614;14.276;2022-12-18T07:47:51;-0.90;99.90
12315;DHT22;23886;46.614;14.276;2022-12-18T07:50:18;-0.90;99.90
12315;DHT22;23886;46.614;14.276;2022-12-18T07:52:45;-0.80;99.90
12315;DHT22;23886;46.614;14.276;2022-12-18T07:55:13;-0.80;99.90
12315;DHT22;23886;46.614;14.276;2022-12-18T07:57:40;-0.80;99.90
12315;DHT22;23886;46.614;14.276;2022-12-18T08:00:08;-0.90;99.90
12315;DHT22;23886;46.614;14.276;2022-12-18T08:02:35;-0.80;99.90
12315;DHT22;23886;46.614;14.276;2022-12-18T08:05:03;-0.80;99.90
12315;DHT22;23886;46.614;14.276;2022-12-18T08:07:30;-0.80;99.90
12315;DHT22;23886;46.614;14.276;2022-12-18T08:09:57;-0.70;99.90
12315;DHT22;23886;46.614;14.276;2022-12-18T08:12:25;-0.50;99.90
12315;DHT22;23886;46.614;14.276;2022-12-18T08:14:52;-0.40;99.90
12315;DHT22;23886;46.614;14.276;2022-12-18T08:17:19;-0.30;99.90
12315;DHT22;23886;46.614;14.276;2022-12-18T08:19:46;-0.30;99.90
12315;DHT22;23886;46.614;14.276;2022-12-18T08:22:13;-0.40;99.90
12315;DHT22;23886;46.614;14.276;2022-12-18T08:24:40;-0.40;99.90
12315;DHT22;23886;46.614;14.276;2022-12-18T08:27:07;-0.40;99.90
12315;DHT22;23886;46.614;14.276;2022-12-18T08:29:35;-0.40;99.90
12315;DHT22;23886;46.614;14.276;2022-12-18T08:32:02;-0.40;99.90
12315;DHT22;23886;46.614;14.276;2022-12-18T08:34:29;-0.30;99.90
12315;DHT22;23886;46.614;14.276;2022-12-18T08:36:56;-0.30;99.90
12315;DHT22;23886;46.614;14.276;2022-12-18T08:39:23;-0.40;99.90
12315;DHT22;23886;46.614;14.276;2022-12-18T08:41:50;-0.40;99.90
12315;DHT22;23886;46.614;14.276;2022-12-18T08:44:31;-0.40;99.90
12315;DHT22;23886;46.614;14.276;2022-12-18T08:47:06;-0.40;99.90
12315;DHT22;23886;46.614;14.276;2022-12-18T08:49:33;-0.40;99.90
12315;DHT22;23886;46.614;14.276;2022-12-18T08:52:01;-0.30;99.90
12315;DHT22;23886;46.614;14.276;2022-12-18T08:54:29;-0.30;99.90
12315;DHT22;23886;46.614;14.276;2022-12-18T08:56:56;-0.40;99.90
12315;DHT22;23886;46.614;14.276;2022-12-18T08:59:23;-0.30;99.90
12315;DHT22;23886;46.614;14.276;2022-12-18T09:01:50;-0.10;99.90
12315;DHT22;23886;46.614;14.276;2022-12-18T09:04:18;-0.10;99.90
12315;DHT22;23886;46.614;14.276;2022-12-18T09:06:45;-0.20;99.90
12315;DHT22;23886;46.614;14.276;2022-12-18T09:09:12;-0.20;99.90
12315;DHT22;23886;46.614;14.276;2022-12-18T09:11:39;-0.20;99.90
12315;DHT22;23886;46.614;14.276;2022-12-18T09:14:06;-0.10;99.90
12315;DHT22;23886;46.614;14.276;2022-12-18T09:16:33;-0.10;99.90
12315;DHT22;23886;46.614;14.276;2022-12-18T09:19:02;-0.10;99.90
12315;DHT22;23886;46.614;14.276;2022-12-18T09:21:32;0.00;99.90
12315;DHT22;23886;46.614;14.276;2022-12-18T09:23:59;-0.10;99.90
12315;DHT22;23886;46.614;14.276;2022-12-18T09:26:26;-0.10;99.90
12315;DHT22;23886;46.614;14.276;2022-12-18T09:28:54;0.00;99.90
12315;DHT22;23886;46.614;14.276;2022-12-18T09:31:23;0.10;99.90
12315;DHT22;23886;46.614;14.276;2022-12-18T09:33:51;0.00;99.90
12315;DHT22;23886;46.614;14.276;2022-12-18T09:36:18;0.20;99.90
12315;DHT22;23886;46.614;14.276;2022-12-18T09:38:46;0.30;99.90
12315;DHT22;23886;46.614;14.276;2022-12-18T09:41:26;0.10;99.90
12315;DHT22;23886;46.614;14.276;2022-12-18T09:43:58;0.10;99.90
12315;DHT22;23886;46.614;14.276;2022-12-18T09:46:30;0.00;99.90
12315;DHT22;23886;46.614;14.276;2022-12-18T09:49:00;0.10;99.90
12315;DHT22;23886;46.614;14.276;2022-12-18T09:51:30;0.10;99.90
12315;DHT22;23886;46.614;14.276;2022-12-18T09:54:03;0.10;99.90
12315;DHT22;23886;46.614;14.276;2022-12-18T09:56:35;0.00;99.90
12315;DHT22;23886;46.614;14.276;2022-12-18T09:59:04;0.10;99.90
12315;DHT22;23886;46.614;14.276;2022-12-18T10:01:32;0.30;99.90
12315;DHT22;23886;46.614;14.276;2022-12-18T10:03:59;0.30;99.90
12315;DHT22;23886;46.614;14.276;2022-12-18T10:06:36;0.40;99.90
12315;DHT22;23886;46.614;14.276;2022-12-18T10:09:12;0.50;99.90
12315;DHT22;23886;46.614;14.276;2022-12-18T10:11:51;0.40;99.90
12315;DHT22;23886;46.614;14.276;2022-12-18T10:14:23;0.70;99.90
12315;DHT22;23886;46.614;14.276;2022-12-18T10:16:59;0.90;99.90
12315;DHT22;23886;46.614;14.276;2022-12-18T10:19:38;0.60;99.90
12315;DHT22;23886;46.614;14.276;2022-12-18T10:22:16;0.50;99.90
12315;DHT22;23886;46.614;14.276;2022-12-18T10:24:52;0.60;99.90
12315;DHT22;23886;46.614;14.276;2022-12-18T10:27:24;0.50;99.90
12315;DHT22;23886;46.614;14.276;2022-12-18T10:29:51;0.60;99.90
12315;DHT22;23886;46.614;14.276;2022-12-18T10:32:20;0.80;99.90
12315;DHT22;23886;46.614;14.276;2022-12-18T10:34:48;0.60;99.90
12315;DHT22;23886;46.614;14.276;2022-12-18T10:37:17;0.60;99.90
12315;DHT22;23886;46.614;14.276;2022-12-18T10:39:46;0.90;99.90
12315;DHT22;23886;46.614;14.276;2022-12-18T10:42:31;0.80;99.90
12315;DHT22;23886;46.614;14.276;2022-12-18T10:45:02;0.80;99.90
12315;DHT22;23886;46.614;14.276;2022-12-18T10:47:30;1.10;99.90
12315;DHT22;23886;46.614;14.276;2022-12-18T10:49:57;1.20;99.90
12315;DHT22;23886;46.614;14.276;2022-12-18T10:52:25;1.20;99.90
12315;DHT22;23886;46.614;14.276;2022-12-18T10:54:58;1.40;99.90
12315;DHT22;23886;46.614;14.276;2022-12-18T10:57:34;1.50;99.90
12315;DHT22;23886;46.614;14.276;2022-12-18T11:00:22;1.50;99.90
12315;DHT22;23886;46.614;14.276;2022-12-18T11:02:50;1.70;99.90
12315;DHT22;23886;46.614;14.276;2022-12-18T11:05:26;1.70;99.90
12315;DHT22;23886;46.614;14.276;2022-12-18T11:07:53;1.50;99.90
12315;DHT22;23886;46.614;14.276;2022-12-18T11:10:25;1.40;99.90
12315;DHT22;23886;46.614;14.276;2022-12-18T11:12:53;1.40;99.90
12315;DHT22;23886;46.614;14.276;2022-12-18T11:15:23;1.50;99.90
12315;DHT22;23886;46.614;14.276;2022-12-18T11:17:52;1.40;99.90
12315;DHT22;23886;46.614;14.276;2022-12-18T11:20:25;1.70;99.90
12315;DHT22;23886;46.614;14.276;2022-12-18T11:22:56;1.60;99.90
12315;DHT22;23886;46.614;14.276;2022-12-18T11:25:25;1.60;99.90
12315;DHT22;23886;46.614;14.276;2022-12-18T11:27:56;1.60;99.90
12315;DHT22;23886;46.614;14.276;2022-12-18T11:30:26;1.50;99.90
12315;DHT22;23886;46.614;14.276;2022-12-18T11:32:56;1.50;99.90
12315;DHT22;23886;46.614;14.276;2022-12-18T11:35:38;1.80;99.90
12315;DHT22;23886;46.614;14.276;2022-12-18T11:38:16;1.70;99.90
12315;DHT22;23886;46.614;14.276;2022-12-18T11:40:52;1.60;99.90
12315;DHT22;23886;46.614;14.276;2022-12-18T11:43:25;1.50;99.90
12315;DHT22;23886;46.614;14.276;2022-12-18T11:45:56;1.50;99.90
12315;DHT22;23886;46.614;14.276;2022-12-18T11:48:28;1.50;99.90
12315;DHT22;23886;46.614;14.276;2022-12-18T11:50:59;1.80;99.90
12315;DHT22;23886;46.614;14.276;2022-12-18T11:53:28;1.70;99.90
12315;DHT22;23886;46.614;14.276;2022-12-18T11:56:07;1.70;99.90
12315;DHT22;23886;46.614;14.276;2022-12-18T11:58:47;1.50;99.90
12315;DHT22;23886;46.614;14.276;2022-12-18T12:01:34;1.40;99.90
12315;DHT22;23886;46.614;14.276;2022-12-18T12:04:43;1.60;99.90
12315;DHT22;23886;46.614;14.276;2022-12-18T12:07:21;1.60;99.90
12315;DHT22;23886;46.614;14.276;2022-12-18T12:09:57;1.50;99.90
12315;DHT22;23886;46.614;14.276;2022-12-18T12:12:34;1.60;99.90
12315;DHT22;23886;46.614;14.276;2022-12-18T12:15:21;1.50;99.90
12315;DHT22;23886;46.614;14.276;2022-12-18T12:17:55;1.60;99.90
12315;DHT22;23886;46.614;14.276;2022-12-18T12:20:33;1.50;99.90
12315;DHT22;23886;46.614;14.276;2022-12-18T12:23:09;1.60;99.90
12315;DHT22;23886;46.614;14.276;2022-12-18T12:25:44;1.80;99.90
12315;DHT22;23886;46.614;14.276;2022-12-18T12:28:23;1.40;99.90
12315;DHT22;23886;46.614;14.276;2022-12-18T12:31:03;1.30;99.90
12315;DHT22;23886;46.614;14.276;2022-12-18T12:33:40;1.30;99.90
12315;DHT22;23886;46.614;14.276;2022-12-18T12:36:16;1.20;99.90
12315;DHT22;23886;46.614;14.276;2022-12-18T12:38:49;1.30;99.90
12315;DHT22;23886;46.614;14.276;2022-12-18T12:41:20;1.40;99.90
12315;DHT22;23886;46.614;14.276;2022-12-18T12:44:12;1.40;99.90
12315;DHT22;23886;46.614;14.276;2022-12-18T12:46:41;1.60;99.90
12315;DHT22;23886;46.614;14.276;2022-12-18T12:49:12;1.70;99.90
12315;DHT22;23886;46.614;14.276;2022-12-18T12:51:43;1.70;99.90
12315;DHT22;23886;46.614;14.276;2022-12-18T12:54:15;1.40;99.90
12315;DHT22;23886;46.614;14.276;2022-12-18T12:56:49;1.50;99.90
12315;DHT22;23886;46.614;14.276;2022-12-18T12:59:24;1.40;99.90
12315;DHT22;23886;46.614;14.276;2022-12-18T13:02:00;1.40;99.90
12315;DHT22;23886;46.614;14.276;2022-12-18T13:04:35;1.30;99.90
12315;DHT22;23886;46.614;14.276;2022-12-18T13:07:10;1.30;99.90
12315;DHT22;23886;46.614;14.276;2022-12-18T13:10:22;1.30;99.90
12315;DHT22;23886;46.614;14.276;2022-12-18T13:12:57;1.30;99.90
12315;DHT22;23886;46.614;14.276;2022-12-18T13:15:30;1.30;99.90
12315;DHT22;23886;46.614;14.276;2022-12-18T13:18:25;1.30;99.90
12315;DHT22;23886;46.614;14.276;2022-12-18T13:21:03;1.30;99.90
12315;DHT22;23886;46.614;14.276;2022-12-18T13:23:35;1.30;99.90
12315;DHT22;23886;46.614;14.276;2022-12-18T13:26:28;1.30;99.90
12315;DHT22;23886;46.614;14.276;2022-12-18T13:28:57;1.30;99.90
12315;DHT22;23886;46.614;14.276;2022-12-18T13:34:36;1.20;99.90
12315;DHT22;23886;46.614;14.276;2022-12-18T13:37:39;1.10;99.90
12315;DHT22;23886;46.614;14.276;2022-12-18T13:43:23;1.20;99.90
12315;DHT22;23886;46.614;14.276;2022-12-18T13:46:01;1.10;99.90
12315;DHT22;23886;46.614;14.276;2022-12-18T13:48:31;1.00;99.90
12315;DHT22;23886;46.614;14.276;2022-12-18T13:51:03;1.00;99.90
12315;DHT22;23886;46.614;14.276;2022-12-18T13:53:34;1.00;99.90
12315;DHT22;23886;46.614;14.276;2022-12-18T13:56:03;1.00;99.90
12315;DHT22;23886;46.614;14.276;2022-12-18T13:58:31;0.90;99.90
12315;DHT22;23886;46.614;14.276;2022-12-18T14:00:58;0.80;99.90
12315;DHT22;23886;46.614;14.276;2022-12-18T14:03:28;0.80;99.90
12315;DHT22;23886;46.614;14.276;2022-12-18T14:06:02;1.00;99.90
12315;DHT22;23886;46.614;14.276;2022-12-18T14:08:35;0.90;99.90
12315;DHT22;23886;46.614;14.276;2022-12-18T14:11:04;1.00;99.90
12315;DHT22;23886;46.614;14.276;2022-12-18T14:13:35;0.90;99.90
12315;DHT22;23886;46.614;14.276;2022-12-18T14:16:04;0.80;99.90
12315;DHT22;23886;46.614;14.276;2022-12-18T14:18:38;0.80;99.90
12315;DHT22;23886;46.614;14.276;2022-12-18T14:21:18;1.00;99.90
12315;DHT22;23886;46.614;14.276;2022-12-18T14:23:46;0.90;99.90
12315;DHT22;23886;46.614;14.276;2022-12-18T14:26:22;0.90;99.90
12315;DHT22;23886;46.614;14.276;2022-12-18T14:28:49;1.00;99.90
12315;DHT22;23886;46.614;14.276;2022-12-18T14:31:20;0.80;99.90
12315;DHT22;23886;46.614;14.276;2022-12-18T14:33:48;0.90;99.90
12315;DHT22;23886;46.614;14.276;2022-12-18T14:36:19;0.80;99.90
12315;DHT22;23886;46.614;14.276;2022-12-18T14:38:49;0.80;99.90
12315;DHT22;23886;46.614;14.276;2022-12-18T14:41:18;0.80;99.90
12315;DHT22;23886;46.614;14.276;2022-12-18T14:43:47;0.80;99.90
12315;DHT22;23886;46.614;14.276;2022-12-18T14:46:34;0.70;99.90
12315;DHT22;23886;46.614;14.276;2022-12-18T14:49:03;0.70;99.90
12315;DHT22;23886;46.614;14.276;2022-12-18T14:51:32;0.70;99.90
12315;DHT22;23886;46.614;14.276;2022-12-18T14:54:01;0.60;99.90
12315;DHT22;23886;46.614;14.276;2022-12-18T14:56:30;0.70;99.90
12315;DHT22;23886;46.614;14.276;2022-12-18T14:58:59;0.60;99.90
12315;DHT22;23886;46.614;14.276;2022-12-18T15:01:30;0.60;99.90
12315;DHT22;23886;46.614;14.276;2022-12-18T15:03:59;0.60;99.90
12315;DHT22;23886;46.614;14.276;2022-12-18T15:06:34;0.50;99.90
12315;DHT22;23886;46.614;14.276;2022-12-18T15:09:03;0.50;99.90
12315;DHT22;23886;46.614;14.276;2022-12-18T15:11:35;0.40;99.90
12315;DHT22;23886;46.614;14.276;2022-12-18T15:14:21;0.40;99.90
12315;DHT22;23886;46.614;14.276;2022-12-18T15:16:51;0.40;99.90
12315;DHT22;23886;46.614;14.276;2022-12-18T15:19:19;0.40;99.90
12315;DHT22;23886;46.614;14.276;2022-12-18T15:21:48;0.30;99.90
12315;DHT22;23886;46.614;14.276;2022-12-18T15:24:18;0.30;99.90
12315;DHT22;23886;46.614;14.276;2022-12-18T15:26:47;0.40;99.90
12315;DHT22;23886;46.614;14.276;2022-12-18T15:29:20;0.30;99.90
12315;DHT22;23886;46.614;14.276;2022-12-18T15:32:02;0.30;99.90
12315;DHT22;23886;46.614;14.276;2022-12-18T15:34:30;0.40;99.90
12315;DHT22;23886;46.614;14.276;2022-12-18T15:36:59;0.30;99.90
12315;DHT22;23886;46.614;14.276;2022-12-18T15:39:26;0.30;99.90
12315;DHT22;23886;46.614;14.276;2022-12-18T15:41:53;0.30;99.90
12315;DHT22;23886;46.614;14.276;2022-12-18T15:44:38;0.30;99.90
12315;DHT22;23886;46.614;14.276;2022-12-18T15:47:10;0.30;99.90
12315;DHT22;23886;46.614;14.276;2022-12-18T15:49:38;0.30;99.90
12315;DHT22;23886;46.614;14.276;2022-12-18T15:52:12;0.30;99.90